createdAt,value
2018-04-14T00:02:43.893Z,7.54
2018-04-14T00:08:34.789Z,8.88
2018-04-14T00:14:25.650Z,9.39
2018-04-14T00:20:16.521Z,6.81
2018-04-14T00:26:07.369Z,5.75
2018-04-14T00:31:58.250Z,8.7
2018-04-14T00:37:49.095Z,8.85
2018-04-14T00:43:40.081Z,5.57
2018-04-14T00:49:30.977Z,5.34
2018-04-14T00:55:21.810Z,5.52
2018-04-14T01:01:12.639Z,5.83
2018-04-14T01:07:03.458Z,7.94
2018-04-14T01:12:54.340Z,6.83
2018-04-14T01:18:45.247Z,5.42
2018-04-14T01:24:36.037Z,6.38
2018-04-14T01:30:26.967Z,5.76
2018-04-14T01:36:17.829Z,5.11
2018-04-14T01:42:08.752Z,6.28
2018-04-14T01:47:59.523Z,8.15
2018-04-14T01:53:50.401Z,5.97
2018-04-14T01:59:41.332Z,6.06
2018-04-14T02:05:32.118Z,6.69
2018-04-14T02:11:23.023Z,4.5
2018-04-14T02:17:13.946Z,5.23
2018-04-14T02:23:04.764Z,7.31
2018-04-14T02:28:55.697Z,4.31
2018-04-14T02:34:46.495Z,4.47
2018-04-14T02:40:37.323Z,7.91
2018-04-14T02:46:28.215Z,8.95
2018-04-14T02:52:19.077Z,8.07
2018-04-14T02:58:09.984Z,7.57
2018-04-14T03:04:00.812Z,8.88
2018-04-14T03:09:51.678Z,6.74
2018-04-14T03:15:42.584Z,8.51
2018-04-14T03:21:33.497Z,6.07
2018-04-14T03:27:24.291Z,6.29
2018-04-14T03:33:15.163Z,8.62
2018-04-14T03:39:06.015Z,4.41
2018-04-14T03:44:56.916Z,9.37
2018-04-14T03:50:47.730Z,5.29
2018-04-14T03:56:38.685Z,7.18
2018-04-14T04:02:29.494Z,7.16
2018-04-14T04:08:20.465Z,11.71
2018-04-14T04:14:11.217Z,5.69
2018-04-14T04:20:02.124Z,10.58
2018-04-14T04:25:52.977Z,6.37
2018-04-14T04:31:43.807Z,5.93
2018-04-14T04:37:34.667Z,5.97
2018-04-14T04:43:25.568Z,6.97
2018-04-14T04:49:16.406Z,5.52
2018-04-14T04:55:07.247Z,8.69
2018-04-14T05:00:58.187Z,9.37
2018-04-14T05:06:49.020Z,6.46
2018-04-14T05:12:39.889Z,10.28
2018-04-14T05:18:30.781Z,7.83
2018-04-14T05:24:21.554Z,7.97
2018-04-14T05:30:12.475Z,7.62
2018-04-14T05:36:03.312Z,12.39
2018-04-14T05:41:54.201Z,7.2
2018-04-14T05:47:45.035Z,11.8
2018-04-14T05:53:35.888Z,11.68
2018-04-14T05:59:26.751Z,11.24
2018-04-14T06:05:17.678Z,10.22
2018-04-14T06:11:08.532Z,14.18
2018-04-14T06:16:59.379Z,7.99
2018-04-14T06:22:50.299Z,12.62
2018-04-14T06:28:41.116Z,12.02
2018-04-14T06:34:31.932Z,9.42
2018-04-14T06:40:22.839Z,7.79
2018-04-14T06:46:13.699Z,9.18
2018-04-14T06:52:04.555Z,6.72
2018-04-14T06:57:55.429Z,12.91
2018-04-14T07:03:46.272Z,13.48
2018-04-14T07:09:37.191Z,8.89
2018-04-14T07:15:28.029Z,10.11
2018-04-14T07:21:18.861Z,9.38
2018-04-14T07:27:09.755Z,10.35
2018-04-14T07:33:00.616Z,14.14
2018-04-14T07:38:51.454Z,15.4
2018-04-14T07:44:42.330Z,8.57
2018-04-14T07:50:33.212Z,11.15
2018-04-14T07:56:24.068Z,9.64
2018-04-14T08:02:14.981Z,11.26
2018-04-14T08:08:05.805Z,9.34
2018-04-14T08:13:56.699Z,12.56
2018-04-14T08:19:47.536Z,16.26
2018-04-14T08:25:38.426Z,10.22
2018-04-14T08:31:29.302Z,12.24
2018-04-14T08:37:20.208Z,15.01
2018-04-14T08:43:11.019Z,11.12
2018-04-14T08:49:01.970Z,14.94
2018-04-14T08:54:52.808Z,16.57
2018-04-14T09:00:43.617Z,9.82
2018-04-14T09:06:34.520Z,6.08
2018-04-14T09:12:25.402Z,8.85
2018-04-14T09:18:16.220Z,10.13
2018-04-14T09:24:07.145Z,7.42
2018-04-14T09:29:58.000Z,26.05
2018-04-14T09:35:48.876Z,15.79
2018-04-14T09:41:39.748Z,8.3
2018-04-14T09:47:30.633Z,7.06
2018-04-14T09:53:21.497Z,8.41
2018-04-14T09:59:12.381Z,7.15
2018-04-14T10:05:03.230Z,7.04
2018-04-14T10:10:54.155Z,4.66
2018-04-14T10:16:45.024Z,6.66
2018-04-14T10:22:35.888Z,4.9
2018-04-14T10:28:26.789Z,7.52
2018-04-14T10:34:17.684Z,2.8
2018-04-14T10:40:08.511Z,4.69
2018-04-14T10:45:59.434Z,7.71
2018-04-14T10:51:50.298Z,8.86
2018-04-14T10:57:41.192Z,8.96
2018-04-14T11:03:32.137Z,5.23
2018-04-14T11:09:22.950Z,6.22
2018-04-14T11:15:13.935Z,8.25
2018-04-14T11:21:04.816Z,7.25
2018-04-14T11:26:55.698Z,5.05
2018-04-14T11:32:46.551Z,5.12
2018-04-14T11:38:37.456Z,7.41
2018-04-14T11:44:28.376Z,6.93
2018-04-14T11:50:19.278Z,4.72
2018-04-14T11:56:10.184Z,6.84
2018-04-14T12:02:01.089Z,5.13
2018-04-14T12:07:52.041Z,6.51
2018-04-14T12:13:42.935Z,7.68
2018-04-14T12:19:33.861Z,6.65
2018-04-14T12:25:24.762Z,5.67
2018-04-14T12:31:15.684Z,7.55
2018-04-14T12:37:06.602Z,6.93
2018-04-14T12:42:57.542Z,8.1
2018-04-14T12:48:48.452Z,5.68
2018-04-14T12:54:39.403Z,6
2018-04-14T13:00:30.313Z,7.71
2018-04-14T13:06:21.225Z,5.45
2018-04-14T13:12:12.165Z,3.65
2018-04-14T13:18:03.068Z,5.1
2018-04-14T13:23:54.024Z,4.64
2018-04-14T13:29:44.978Z,5.54
2018-04-14T13:35:35.927Z,5.53
2018-04-14T13:41:26.886Z,7.78
2018-04-14T13:47:17.776Z,7.91
2018-04-14T13:53:08.773Z,4.96
2018-04-14T13:58:59.702Z,6.43
2018-04-14T14:04:50.609Z,4.19
2018-04-14T14:10:41.530Z,6.6
2018-04-14T14:16:32.570Z,9.75
2018-04-14T14:22:23.376Z,4.71
2018-04-14T14:28:14.330Z,3.92
2018-04-14T14:34:05.234Z,8.99
2018-04-14T14:39:56.142Z,6.5
2018-04-14T14:45:47.083Z,8.25
2018-04-14T14:51:38.012Z,6.29
2018-04-14T14:57:29.030Z,8.96
2018-04-14T15:03:19.881Z,4.53
2018-04-14T15:09:10.754Z,11.34
2018-04-14T15:15:01.723Z,5.56
2018-04-14T15:20:52.602Z,6.73
2018-04-14T15:26:43.513Z,8.52
2018-04-14T15:32:34.446Z,9.33
2018-04-14T15:38:25.350Z,5.75
2018-04-14T15:44:16.230Z,11.66
2018-04-14T15:50:07.144Z,7.22
2018-04-14T15:55:58.098Z,5.24
2018-04-14T16:01:49.045Z,6.19
2018-04-14T16:07:39.936Z,5.14
2018-04-14T16:13:30.810Z,7.48
2018-04-14T16:19:21.775Z,9.88
2018-04-14T16:25:12.633Z,6.45
2018-04-14T16:31:03.571Z,5.36
2018-04-14T16:36:54.443Z,6.83
2018-04-14T16:42:45.353Z,7.58
2018-04-14T16:48:36.230Z,4.03
2018-04-14T16:54:27.180Z,5.57
2018-04-14T17:00:18.099Z,5.71
2018-04-14T17:06:08.984Z,7.59
2018-04-14T17:11:59.904Z,4.71
2018-04-14T17:17:50.811Z,5.32
2018-04-14T17:23:41.663Z,4.78
2018-04-14T17:29:32.595Z,5.59
2018-04-14T17:35:23.491Z,4.09
2018-04-14T17:41:14.349Z,5.54
2018-04-14T17:47:05.296Z,8.38
2018-04-14T17:52:56.193Z,4.22
2018-04-14T17:58:47.066Z,4.78
2018-04-14T18:04:38.030Z,4.41
2018-04-14T18:10:28.939Z,3.16
2018-04-14T18:16:19.776Z,5.55
2018-04-14T18:22:10.690Z,3.76
2018-04-14T18:28:01.547Z,2.72
2018-04-14T18:33:52.445Z,4.13
2018-04-14T18:39:43.332Z,4.25
2018-04-14T18:45:34.282Z,2.75
2018-04-14T18:51:25.573Z,4.35
2018-04-14T18:57:16.123Z,7.06
2018-04-14T19:03:06.980Z,2.97
2018-04-14T19:08:57.863Z,3.09
2018-04-14T19:14:48.747Z,5.26
2018-04-14T19:20:39.650Z,3.36
2018-04-14T19:26:30.535Z,6.47
2018-04-14T19:32:21.508Z,3.16
2018-04-14T19:38:12.347Z,4.75
2018-04-14T19:44:03.349Z,3.62
2018-04-14T19:49:54.175Z,4.07
2018-04-14T19:55:45.039Z,5.87
2018-04-14T20:01:35.903Z,4.38
2018-04-14T20:07:26.877Z,2.24
2018-04-14T20:13:17.723Z,3.65
2018-04-14T20:19:08.596Z,2.86
2018-04-14T20:24:59.489Z,3.25
2018-04-14T20:30:50.341Z,3.27
2018-04-14T20:36:41.314Z,3.18
2018-04-14T20:42:32.207Z,3.04
2018-04-14T20:48:23.036Z,3.54
2018-04-14T20:54:13.925Z,4.68
2018-04-14T21:00:04.846Z,5.75
2018-04-14T21:05:55.729Z,2.24
2018-04-14T21:11:46.605Z,4.47
2018-04-14T21:17:37.499Z,3.91
2018-04-14T21:23:28.408Z,3.1
2018-04-14T21:29:19.340Z,2.89
2018-04-14T21:35:10.201Z,2.76
2018-04-14T21:41:01.101Z,2.74
2018-04-14T21:46:51.980Z,4.76
2018-04-14T21:52:42.859Z,2.4
2018-04-14T21:58:33.775Z,4.33
2018-04-14T22:04:24.667Z,2.7
2018-04-14T22:10:15.543Z,4.95
2018-04-14T22:16:06.425Z,6.3
2018-04-14T22:21:57.296Z,4.89
2018-04-14T22:27:48.207Z,3.35
2018-04-14T22:33:39.112Z,3.68
2018-04-14T22:39:30.002Z,2.84
2018-04-14T22:45:20.869Z,3.51
2018-04-14T22:51:11.761Z,3.81
2018-04-14T22:57:02.662Z,3.05
2018-04-14T23:02:53.556Z,3.37
2018-04-14T23:08:44.432Z,3.68
2018-04-14T23:14:35.361Z,2.72
2018-04-14T23:20:26.216Z,2.99
2018-04-14T23:26:17.130Z,2.72
2018-04-14T23:32:07.944Z,2.85
2018-04-14T23:37:58.845Z,2.61
2018-04-14T23:43:49.736Z,4.66
2018-04-14T23:49:40.650Z,2.89
2018-04-14T23:55:31.591Z,3.22
